BIEG

Egilsstaðir Airport

Egilsstaðir, Iceland

BIEG 230500Z 02005KT 9999 -RA FEW028 SCT043 BKN050 08/06 Q0998 R04/290095

Observed Flight Rules
Oct-23 @ 05:00 UTC (an hour ago)
 
Visual Flight Rules
Wind Visibility Clouds Conditions
20° at 5 knots 10,000+ meters
  • Few at 2,800' AGL
  • Scattered at 4,300' AGL
  • Broken at 5,000' AGL
  • Light Rain
Temperatures Readings
Current 8°C / 46°F
Dewpoint 6°C / 43°F
Humidity 87%
Altimeter 29.47" Hg
Pressure 998 hPa
Elevation 38
Observed Flight Rules
Oct-23 @ 05:00 UTC
(an hour ago)
 
VFR
Wind Visibility
20° at 5 knots 10,000+ meters
Clouds Conditions
  • Few at 2,800' AGL
  • Scattered at 4,300' AGL
  • Broken at 5,000' AGL
  • Light Rain
Temperature Dewpoint
8°C / 46°F 6°C / 43°F
Humidity Altimeter Pressure
87% 29.47" Hg 998 hPa